createdAt,value
2023-03-17T00:01:13.000Z,2.9
2023-03-17T00:02:44.000Z,2.9
2023-03-17T00:04:01.000Z,2.7
2023-03-17T00:05:17.000Z,2.9
2023-03-17T00:06:48.000Z,2.9
2023-03-17T00:08:18.000Z,3
2023-03-17T00:09:49.000Z,3
2023-03-17T00:11:20.000Z,2.9
2023-03-17T00:12:50.000Z,2.8
2023-03-17T00:14:21.000Z,2.8
2023-03-17T00:15:51.000Z,2.7
2023-03-17T00:17:22.000Z,2.5
2023-03-17T00:18:52.000Z,2.3
2023-03-17T00:20:09.000Z,2.6
2023-03-17T00:21:26.000Z,2.5
2023-03-17T00:22:57.000Z,2.3
2023-03-17T00:24:27.000Z,2.5
2023-03-17T00:25:58.000Z,2.5
2023-03-17T00:27:28.000Z,2.2
2023-03-17T00:28:59.000Z,1.8
2023-03-17T00:30:29.000Z,2.3
2023-03-17T00:32:00.000Z,2
2023-03-17T00:33:30.000Z,2.3
2023-03-17T00:35:01.000Z,2.4
2023-03-17T00:36:18.000Z,2.6
2023-03-17T00:37:35.000Z,2.2
2023-03-17T00:39:05.000Z,2.5
2023-03-17T00:40:36.000Z,2.5
2023-03-17T00:42:06.000Z,2.1
2023-03-17T00:43:37.000Z,2.5
2023-03-17T00:45:07.000Z,2.5
2023-03-17T00:46:38.000Z,2.7
2023-03-17T00:48:08.000Z,2.6
2023-03-17T00:49:39.000Z,2.7
2023-03-17T00:51:09.000Z,3.2
2023-03-17T00:52:26.000Z,2.7
2023-03-17T00:53:43.000Z,2.6
2023-03-17T00:55:14.000Z,2.3
2023-03-17T00:56:44.000Z,2.6
2023-03-17T00:58:15.000Z,2.7
2023-03-17T00:59:45.000Z,2.5
2023-03-17T01:01:16.000Z,2.9
2023-03-17T01:02:46.000Z,2.6
2023-03-17T01:04:17.000Z,2.2
2023-03-17T01:05:47.000Z,2.6
2023-03-17T01:07:18.000Z,2.7
2023-03-17T01:08:35.000Z,3.7
2023-03-17T01:09:52.000Z,2.9
2023-03-17T01:11:22.000Z,2.6
2023-03-17T01:12:53.000Z,3.2
2023-03-17T01:14:23.000Z,3.6
2023-03-17T01:16:02.000Z,2.8
2023-03-17T01:17:32.000Z,2.3
2023-03-17T01:19:03.000Z,2.6
2023-03-17T01:20:33.000Z,2.8
2023-03-17T01:22:04.000Z,2.5
2023-03-17T01:23:34.000Z,2.5
2023-03-17T01:24:51.000Z,2.6
2023-03-17T01:26:08.000Z,2.7
2023-03-17T01:27:39.000Z,2.6
2023-03-17T01:29:09.000Z,2.7
2023-03-17T01:30:40.000Z,2.9
2023-03-17T01:32:10.000Z,2.6
2023-03-17T01:33:41.000Z,2.7
2023-03-17T01:35:11.000Z,2.5
2023-03-17T01:36:42.000Z,2.4
2023-03-17T01:38:13.000Z,2.6
2023-03-17T01:39:43.000Z,2.8
2023-03-17T01:41:00.000Z,2
2023-03-17T01:42:17.000Z,2.6
2023-03-17T01:43:47.000Z,2.3
2023-03-17T01:45:18.000Z,2.7
2023-03-17T01:46:49.000Z,2.7
2023-03-17T01:48:19.000Z,2.6
2023-03-17T01:49:50.000Z,2.3
2023-03-17T01:51:20.000Z,2.5
2023-03-17T01:52:51.000Z,2.6
2023-03-17T01:54:21.000Z,2.6
2023-03-17T01:55:52.000Z,2
2023-03-17T01:57:09.000Z,2.1
2023-03-17T01:58:26.000Z,1.9
2023-03-17T01:59:56.000Z,2.3
2023-03-17T02:01:27.000Z,2.1
2023-03-17T02:02:57.000Z,1.8
2023-03-17T02:04:28.000Z,2.1
2023-03-17T02:05:58.000Z,2.8
2023-03-17T02:07:29.000Z,2.8
2023-03-17T02:08:59.000Z,2.8
2023-03-17T02:10:30.000Z,2.7
2023-03-17T02:12:00.000Z,2.8
2023-03-17T02:14:34.000Z,2.8
2023-03-17T02:16:05.000Z,2.2
2023-03-17T02:17:35.000Z,2.7
2023-03-17T02:19:06.000Z,2.3
2023-03-17T02:20:36.000Z,2.7
2023-03-17T02:22:07.000Z,2.9
2023-03-17T02:23:37.000Z,3
2023-03-17T02:25:08.000Z,3
2023-03-17T02:26:38.000Z,3
2023-03-17T02:28:09.000Z,3.1
2023-03-17T02:29:26.000Z,2.8
2023-03-17T02:30:42.000Z,2.4
2023-03-17T02:32:13.000Z,3.1
2023-03-17T02:33:43.000Z,2.6
2023-03-17T02:35:14.000Z,2.8
2023-03-17T02:36:44.000Z,3.2
2023-03-17T02:38:15.000Z,3
2023-03-17T02:39:45.000Z,3
2023-03-17T02:41:16.000Z,3
2023-03-17T02:42:46.000Z,2.6
2023-03-17T02:44:17.000Z,2.5
2023-03-17T02:45:34.000Z,2.3
2023-03-17T02:46:51.000Z,2.5
2023-03-17T02:48:21.000Z,2.9
2023-03-17T02:49:52.000Z,2.6
2023-03-17T02:51:22.000Z,2.9
2023-03-17T02:52:53.000Z,2.7
2023-03-17T02:54:23.000Z,3
2023-03-17T02:55:54.000Z,2.8
2023-03-17T02:57:24.000Z,2.6
2023-03-17T02:58:55.000Z,2.6
2023-03-17T03:00:25.000Z,2.8
2023-03-17T03:01:42.000Z,2.9
2023-03-17T03:02:59.000Z,3.1
2023-03-17T03:04:30.000Z,2.9
2023-03-17T03:06:00.000Z,2.8
2023-03-17T03:07:31.000Z,2.9
2023-03-17T03:09:01.000Z,2.5
2023-03-17T03:10:32.000Z,2.3
2023-03-17T03:12:02.000Z,2.1
2023-03-17T03:13:33.000Z,1.8
2023-03-17T03:15:03.000Z,2.1
2023-03-17T03:16:34.000Z,2.3
2023-03-17T03:17:51.000Z,2.7
2023-03-17T03:19:08.000Z,2.9
2023-03-17T03:20:38.000Z,2.3
2023-03-17T03:22:09.000Z,1.9
2023-03-17T03:23:39.000Z,2.8
2023-03-17T03:25:10.000Z,2.9
2023-03-17T03:26:40.000Z,2.7
2023-03-17T03:28:11.000Z,2.9
2023-03-17T03:29:41.000Z,2.9
2023-03-17T03:31:12.000Z,2.2
2023-03-17T03:32:43.000Z,2.7
2023-03-17T03:33:59.000Z,2.7
2023-03-17T03:35:16.000Z,2.8
2023-03-17T03:36:47.000Z,2.3
2023-03-17T03:38:17.000Z,3.1
2023-03-17T03:39:48.000Z,2.5
2023-03-17T03:41:18.000Z,2.9
2023-03-17T03:42:49.000Z,2.8
2023-03-17T03:44:20.000Z,2.3
2023-03-17T03:45:50.000Z,2.3
2023-03-17T03:47:21.000Z,2
2023-03-17T03:48:51.000Z,2.2
2023-03-17T03:50:08.000Z,2.3
2023-03-17T03:51:25.000Z,2.4
2023-03-17T03:52:56.000Z,2.6
2023-03-17T03:54:26.000Z,2.6
2023-03-17T03:55:57.000Z,3.1
2023-03-17T03:57:27.000Z,2.8
2023-03-17T03:58:58.000Z,2.7
2023-03-17T04:00:28.000Z,3.4
2023-03-17T04:01:59.000Z,3.2
2023-03-17T04:03:29.000Z,3.5
2023-03-17T04:05:00.000Z,3.5
2023-03-17T04:06:16.000Z,3.1
2023-03-17T04:07:33.000Z,3.3
2023-03-17T04:09:04.000Z,3.5
2023-03-17T04:10:34.000Z,3.3
2023-03-17T04:12:05.000Z,3.2
2023-03-17T04:13:35.000Z,2.5
2023-03-17T04:15:06.000Z,2.6
2023-03-17T04:16:36.000Z,2.1
2023-03-17T04:18:07.000Z,2.1
2023-03-17T04:19:37.000Z,2.5
2023-03-17T04:21:08.000Z,2.9
2023-03-17T04:22:25.000Z,2.2
2023-03-17T04:23:42.000Z,3
2023-03-17T04:25:12.000Z,2.7
2023-03-17T04:26:43.000Z,2.4
2023-03-17T04:28:13.000Z,2.4
2023-03-17T04:29:44.000Z,2.4
2023-03-17T04:31:14.000Z,3.7
2023-03-17T04:32:45.000Z,2.9
2023-03-17T04:34:15.000Z,3.2
2023-03-17T04:35:46.000Z,3.3
2023-03-17T04:37:16.000Z,2.8
2023-03-17T04:38:33.000Z,3.4
2023-03-17T04:39:50.000Z,2.7
2023-03-17T04:41:21.000Z,2.5
2023-03-17T04:42:51.000Z,2.6
2023-03-17T04:44:22.000Z,2.7
2023-03-17T04:45:52.000Z,2.2
2023-03-17T04:47:23.000Z,2.5
2023-03-17T04:51:54.000Z,2.6
2023-03-17T04:53:25.000Z,2.9
2023-03-17T04:55:59.000Z,2.8
2023-03-17T04:57:29.000Z,2.9
2023-03-17T04:59:00.000Z,3
2023-03-17T05:00:30.000Z,3.1
2023-03-17T05:02:01.000Z,3.3
2023-03-17T05:03:31.000Z,2.8
2023-03-17T05:05:02.000Z,2.4
2023-03-17T05:06:32.000Z,2.2
2023-03-17T05:08:03.000Z,3.8
2023-03-17T05:09:33.000Z,3.7
2023-03-17T05:10:50.000Z,3.1
2023-03-17T05:12:07.000Z,3.3
2023-03-17T05:13:38.000Z,3.1
2023-03-17T05:15:08.000Z,2.5
2023-03-17T05:16:39.000Z,2.1
2023-03-17T05:18:09.000Z,2.3
2023-03-17T05:19:40.000Z,1.9
2023-03-17T05:21:10.000Z,2
2023-03-17T05:22:41.000Z,2.4
2023-03-17T05:24:11.000Z,2.3
2023-03-17T05:25:42.000Z,2.2
2023-03-17T05:26:59.000Z,2.4
2023-03-17T05:28:16.000Z,2.7
2023-03-17T05:29:46.000Z,2.1
2023-03-17T05:31:17.000Z,2.9
2023-03-17T05:32:47.000Z,2.5
2023-03-17T05:34:18.000Z,3
2023-03-17T05:35:48.000Z,2.4
2023-03-17T05:37:19.000Z,3.4
2023-03-17T05:38:49.000Z,2.5
2023-03-17T05:40:20.000Z,2.9
2023-03-17T05:41:50.000Z,2.4
2023-03-17T05:43:07.000Z,2.1
2023-03-17T05:44:24.000Z,1.7
2023-03-17T05:45:55.000Z,3.2
2023-03-17T05:47:25.000Z,3.1
2023-03-17T05:48:56.000Z,2.4
2023-03-17T05:50:26.000Z,2.3
2023-03-17T05:51:57.000Z,2.5
2023-03-17T05:53:28.000Z,3
2023-03-17T05:54:58.000Z,2.8
2023-03-17T05:56:29.000Z,3.3
2023-03-17T05:57:59.000Z,3.2
2023-03-17T05:59:16.000Z,3.3
2023-03-17T06:00:33.000Z,3.7
2023-03-17T06:02:04.000Z,3.2
2023-03-17T06:03:34.000Z,3.2
2023-03-17T06:05:05.000Z,3.9
2023-03-17T06:06:35.000Z,3.5
2023-03-17T06:08:06.000Z,3
2023-03-17T06:09:36.000Z,2
2023-03-17T06:11:07.000Z,2.6
2023-03-17T06:12:37.000Z,3
2023-03-17T06:14:16.000Z,2.5
2023-03-17T06:16:50.000Z,2.6
2023-03-17T06:18:20.000Z,2.8
2023-03-17T06:19:51.000Z,2.9
2023-03-17T06:21:21.000Z,1.9
2023-03-17T06:22:52.000Z,2
2023-03-17T06:25:53.000Z,1.9
2023-03-17T06:27:23.000Z,1.6
2023-03-17T06:28:54.000Z,2.6
2023-03-17T06:30:24.000Z,2.5
2023-03-17T06:31:41.000Z,3
2023-03-17T06:32:58.000Z,2.9
2023-03-17T06:34:28.000Z,2.6
2023-03-17T06:35:59.000Z,2.9
2023-03-17T06:37:29.000Z,2.6
2023-03-17T06:39:00.000Z,2.1
2023-03-17T06:40:30.000Z,1.9
2023-03-17T06:43:31.000Z,2.9
2023-03-17T06:45:02.000Z,3.1
2023-03-17T06:46:32.000Z,3.2
2023-03-17T06:47:49.000Z,3.3
2023-03-17T06:49:06.000Z,3.4
2023-03-17T06:50:37.000Z,3.5
2023-03-17T06:52:07.000Z,3.8
2023-03-17T06:53:38.000Z,3.8
2023-03-17T06:55:08.000Z,3.5
2023-03-17T06:56:39.000Z,3.9
2023-03-17T06:58:09.000Z,3.1
2023-03-17T06:59:40.000Z,3.9
2023-03-17T07:01:11.000Z,4.2
2023-03-17T07:02:41.000Z,2.8
2023-03-17T07:03:58.000Z,2.8
2023-03-17T07:05:15.000Z,2.6
2023-03-17T07:06:45.000Z,3
2023-03-17T07:08:16.000Z,3.1
2023-03-17T07:09:46.000Z,2.8
2023-03-17T07:11:17.000Z,2.8
2023-03-17T07:12:48.000Z,3.1
2023-03-17T07:14:18.000Z,2.6
2023-03-17T07:15:49.000Z,3.4
2023-03-17T07:17:19.000Z,3.1
2023-03-17T07:18:50.000Z,2.3
2023-03-17T07:20:07.000Z,2.4
2023-03-17T07:21:23.000Z,2.4
2023-03-17T07:22:54.000Z,2.8
2023-03-17T07:24:24.000Z,2.9
2023-03-17T07:25:55.000Z,2.8
2023-03-17T07:27:25.000Z,3.1
2023-03-17T07:28:56.000Z,3
2023-03-17T07:30:26.000Z,3.3
2023-03-17T07:31:57.000Z,2.8
2023-03-17T07:33:27.000Z,3.3
2023-03-17T07:34:58.000Z,2.9
2023-03-17T07:36:15.000Z,2.9
2023-03-17T07:37:32.000Z,2.9
2023-03-17T07:39:02.000Z,2.7
2023-03-17T07:40:33.000Z,2.7
2023-03-17T07:42:03.000Z,2.7
2023-03-17T07:43:34.000Z,2.6
2023-03-17T07:45:04.000Z,2.8
2023-03-17T07:46:35.000Z,2.6
2023-03-17T07:48:05.000Z,2.9
2023-03-17T07:49:36.000Z,3.5
2023-03-17T07:51:06.000Z,2.8
2023-03-17T07:52:23.000Z,4.1
2023-03-17T07:53:40.000Z,4.3
2023-03-17T07:55:11.000Z,3.9
2023-03-17T07:56:41.000Z,4.1
2023-03-17T07:58:12.000Z,3.8
2023-03-17T07:59:42.000Z,2.6
2023-03-17T08:01:13.000Z,3.6
2023-03-17T08:02:43.000Z,3.4
2023-03-17T08:04:14.000Z,2.7
2023-03-17T08:05:44.000Z,2.4
2023-03-17T08:07:15.000Z,2.2
2023-03-17T08:08:32.000Z,2.4
2023-03-17T08:09:49.000Z,2.2
2023-03-17T08:11:19.000Z,2.1
2023-03-17T08:12:50.000Z,2
2023-03-17T08:14:20.000Z,2.2
2023-03-17T08:15:51.000Z,2.1
2023-03-17T08:17:21.000Z,2.1
2023-03-17T08:18:52.000Z,2.4
2023-03-17T08:20:22.000Z,2.3
2023-03-17T08:21:53.000Z,2.8
2023-03-17T08:24:40.000Z,2.8
2023-03-17T08:25:57.000Z,2.4
2023-03-17T08:27:28.000Z,2.4
2023-03-17T08:28:58.000Z,2.6
2023-03-17T08:31:59.000Z,2.7
2023-03-17T08:33:30.000Z,2.7
2023-03-17T08:35:00.000Z,2.5
2023-03-17T08:36:31.000Z,2.5
2023-03-17T08:38:01.000Z,2.6
2023-03-17T08:39:32.000Z,2.6
2023-03-17T08:40:49.000Z,2.6
2023-03-17T08:42:06.000Z,2.3
2023-03-17T08:43:36.000Z,2.5
2023-03-17T08:45:07.000Z,2.6
2023-03-17T08:46:37.000Z,2.6
2023-03-17T08:48:08.000Z,2.4
2023-03-17T08:49:38.000Z,2.5
2023-03-17T08:51:09.000Z,2.6
2023-03-17T08:52:39.000Z,2.4
2023-03-17T08:54:10.000Z,2.4
2023-03-17T08:55:40.000Z,2.8
2023-03-17T08:56:57.000Z,2.6
2023-03-17T08:58:14.000Z,3.4
2023-03-17T08:59:44.000Z,2.9
2023-03-17T09:01:15.000Z,2.6
2023-03-17T09:02:45.000Z,2.6
2023-03-17T09:04:16.000Z,2.7
2023-03-17T09:05:46.000Z,2.6
2023-03-17T09:07:17.000Z,2.6
2023-03-17T09:08:48.000Z,2.8
2023-03-17T09:10:18.000Z,2.7
2023-03-17T09:11:49.000Z,2.6
2023-03-17T09:13:06.000Z,2.6
2023-03-17T09:14:22.000Z,2.8
2023-03-17T09:15:53.000Z,2.6
2023-03-17T09:17:24.000Z,2.6
2023-03-17T09:18:54.000Z,2.7
2023-03-17T09:20:25.000Z,2.8
2023-03-17T09:21:55.000Z,2.6
2023-03-17T09:23:26.000Z,2.6
2023-03-17T09:24:56.000Z,2.8
2023-03-17T09:26:27.000Z,2.8
2023-03-17T09:27:57.000Z,3
2023-03-17T09:29:14.000Z,2.9
2023-03-17T09:30:31.000Z,2.6
2023-03-17T09:32:02.000Z,2.8
2023-03-17T09:33:32.000Z,2.7
2023-03-17T09:35:03.000Z,2.7
2023-03-17T09:36:33.000Z,2.7
2023-03-17T09:38:04.000Z,2.8
2023-03-17T09:39:34.000Z,2.5
2023-03-17T09:41:05.000Z,2.6
2023-03-17T09:42:35.000Z,2.8
2023-03-17T09:44:06.000Z,2.8
2023-03-17T09:45:23.000Z,2.7
2023-03-17T09:46:40.000Z,2.9
2023-03-17T09:48:10.000Z,2.8
2023-03-17T09:49:41.000Z,2.7
2023-03-17T09:51:11.000Z,2.9
2023-03-17T09:52:42.000Z,2.7
2023-03-17T09:54:12.000Z,2.7
2023-03-17T09:55:43.000Z,2.6
2023-03-17T09:57:13.000Z,2.5
2023-03-17T09:58:44.000Z,2.7
2023-03-17T10:00:14.000Z,2.5
2023-03-17T10:01:31.000Z,2.5
2023-03-17T10:02:48.000Z,2.8
2023-03-17T10:04:19.000Z,2.4
2023-03-17T10:05:49.000Z,2.7
2023-03-17T10:07:20.000Z,2.7
2023-03-17T10:08:50.000Z,2.4
2023-03-17T10:10:21.000Z,2.6
2023-03-17T10:11:51.000Z,2.5
2023-03-17T10:13:22.000Z,2.8
2023-03-17T10:14:52.000Z,2.4
2023-03-17T10:16:23.000Z,2.8
2023-03-17T10:17:40.000Z,2.5
2023-03-17T10:18:57.000Z,2.8
2023-03-17T10:20:27.000Z,2.3
2023-03-17T10:21:58.000Z,2.4
2023-03-17T10:23:28.000Z,2.3
2023-03-17T10:24:59.000Z,2.7
2023-03-17T10:26:29.000Z,2.4
2023-03-17T10:28:00.000Z,2.5
2023-03-17T10:29:30.000Z,2.4
2023-03-17T10:31:01.000Z,2.1
2023-03-17T10:32:31.000Z,2.4
2023-03-17T10:33:48.000Z,2.3
2023-03-17T10:35:05.000Z,2.2
2023-03-17T10:36:36.000Z,2.2
2023-03-17T10:38:06.000Z,2.4
2023-03-17T10:39:37.000Z,2.1
2023-03-17T10:41:07.000Z,2.3
2023-03-17T10:42:38.000Z,2
2023-03-17T10:44:08.000Z,2.2
2023-03-17T10:45:39.000Z,2
2023-03-17T10:47:09.000Z,2.3
2023-03-17T10:48:40.000Z,2.2
2023-03-17T10:49:57.000Z,2.1
2023-03-17T10:51:14.000Z,2.1
2023-03-17T10:52:44.000Z,2.2
2023-03-17T10:54:15.000Z,2
2023-03-17T10:55:45.000Z,2.2
2023-03-17T10:57:16.000Z,2.3
2023-03-17T10:58:46.000Z,2
2023-03-17T11:00:17.000Z,2.1
2023-03-17T11:01:47.000Z,2.3
2023-03-17T11:03:18.000Z,2.2
2023-03-17T11:06:05.000Z,2.2
2023-03-17T11:07:22.000Z,2.2
2023-03-17T11:08:53.000Z,2.1
2023-03-17T11:10:23.000Z,2.3
2023-03-17T11:11:54.000Z,2.2
2023-03-17T11:13:24.000Z,2.3
2023-03-17T11:14:55.000Z,2.6
2023-03-17T11:16:25.000Z,2.5
2023-03-17T11:17:56.000Z,2.8
2023-03-17T11:19:26.000Z,2.7
2023-03-17T11:20:57.000Z,2.4
2023-03-17T11:22:14.000Z,2.6
2023-03-17T11:23:31.000Z,2.3
2023-03-17T11:25:01.000Z,2.4
2023-03-17T11:26:32.000Z,2.6
2023-03-17T11:28:02.000Z,2.2
2023-03-17T11:29:33.000Z,2.3
2023-03-17T11:32:34.000Z,2.5
2023-03-17T11:34:05.000Z,2.1
2023-03-17T11:35:43.000Z,2.2
2023-03-17T11:37:14.000Z,2
2023-03-17T11:38:31.000Z,2.4
2023-03-17T11:39:48.000Z,2.4
2023-03-17T11:41:18.000Z,2.6
2023-03-17T11:42:49.000Z,2.5
2023-03-17T11:44:19.000Z,2.4
2023-03-17T11:45:50.000Z,2.2
2023-03-17T11:47:20.000Z,2.4
2023-03-17T11:48:51.000Z,2.1
2023-03-17T11:51:52.000Z,2.1
2023-03-17T11:53:22.000Z,2
2023-03-17T11:54:39.000Z,1.9
2023-03-17T11:55:56.000Z,2
2023-03-17T11:57:26.000Z,1.8
2023-03-17T11:58:57.000Z,2.1
2023-03-17T12:00:27.000Z,2
2023-03-17T12:01:58.000Z,1.7
2023-03-17T12:03:28.000Z,1.9
2023-03-17T12:04:59.000Z,2.1
2023-03-17T12:06:29.000Z,1.9
2023-03-17T12:08:00.000Z,2
2023-03-17T12:09:30.000Z,1.9
2023-03-17T12:10:47.000Z,2.2
2023-03-17T12:12:04.000Z,1.9
2023-03-17T12:13:35.000Z,2
2023-03-17T12:15:05.000Z,2.1
2023-03-17T12:16:36.000Z,1.9
2023-03-17T12:18:06.000Z,2.2
2023-03-17T12:19:37.000Z,2
2023-03-17T12:21:07.000Z,2
2023-03-17T12:22:38.000Z,2.1
2023-03-17T12:24:08.000Z,2.2
2023-03-17T12:25:39.000Z,2.3
2023-03-17T12:26:56.000Z,2.1
2023-03-17T12:28:13.000Z,1.8
2023-03-17T12:29:43.000Z,2.4
2023-03-17T12:31:14.000Z,2
2023-03-17T12:32:44.000Z,1.9
2023-03-17T12:34:15.000Z,1.8
2023-03-17T12:35:45.000Z,1.9
2023-03-17T12:37:16.000Z,1.7
2023-03-17T12:38:46.000Z,1.8
2023-03-17T12:40:17.000Z,1.9
2023-03-17T12:41:47.000Z,1.8
2023-03-17T12:43:04.000Z,1.7
2023-03-17T12:44:21.000Z,2
2023-03-17T12:45:52.000Z,1.9
2023-03-17T12:47:22.000Z,1.9
2023-03-17T12:48:53.000Z,1.8
2023-03-17T12:50:23.000Z,2.1
2023-03-17T12:51:54.000Z,1.5
2023-03-17T12:53:24.000Z,1.7
2023-03-17T12:54:55.000Z,2
2023-03-17T12:56:25.000Z,2.1
2023-03-17T12:57:56.000Z,1.6
2023-03-17T12:59:13.000Z,2
2023-03-17T13:00:30.000Z,1.6
2023-03-17T13:02:00.000Z,1.8
2023-03-17T13:03:31.000Z,1.4
2023-03-17T13:05:01.000Z,1.6
2023-03-17T13:06:32.000Z,1.7
2023-03-17T13:08:02.000Z,1.5
2023-03-17T13:09:33.000Z,1.6
2023-03-17T13:12:34.000Z,1.6
2023-03-17T13:14:05.000Z,1.6
2023-03-17T13:15:22.000Z,1.7
2023-03-17T13:16:38.000Z,1.7
2023-03-17T13:18:09.000Z,1.6
2023-03-17T13:19:40.000Z,1.6
2023-03-17T13:21:10.000Z,1.6
2023-03-17T13:22:41.000Z,1.6
2023-03-17T13:24:11.000Z,1.8
2023-03-17T13:25:42.000Z,1.4
2023-03-17T13:27:12.000Z,1.4
2023-03-17T13:28:43.000Z,1.6
2023-03-17T13:30:13.000Z,1.4
2023-03-17T13:31:30.000Z,1.5
2023-03-17T13:32:47.000Z,1.5
2023-03-17T13:34:18.000Z,1.6
2023-03-17T13:35:48.000Z,1.2
2023-03-17T13:37:19.000Z,1.5
2023-03-17T13:38:49.000Z,1.3
2023-03-17T13:40:20.000Z,1.6
2023-03-17T13:41:50.000Z,1.5
2023-03-17T13:43:21.000Z,1.4
2023-03-17T13:44:51.000Z,1.5
2023-03-17T13:46:22.000Z,1.5
2023-03-17T13:47:39.000Z,1.2
2023-03-17T13:48:56.000Z,1.3
2023-03-17T13:50:26.000Z,1.4
2023-03-17T13:51:57.000Z,1.5
2023-03-17T13:53:27.000Z,1.3
2023-03-17T13:54:58.000Z,1.2
2023-03-17T13:56:28.000Z,1.5
2023-03-17T13:57:59.000Z,1.5
2023-03-17T13:59:29.000Z,1.3
2023-03-17T14:01:00.000Z,1.7
2023-03-17T14:02:30.000Z,1.5
2023-03-17T14:06:35.000Z,1.2
2023-03-17T14:08:05.000Z,1.3
2023-03-17T14:09:36.000Z,1.4
2023-03-17T14:11:06.000Z,1.3
2023-03-17T14:12:37.000Z,1.4
2023-03-17T14:14:07.000Z,1.3
2023-03-17T14:17:08.000Z,1.9
2023-03-17T14:18:39.000Z,1.6
2023-03-17T14:19:56.000Z,1.9
2023-03-17T14:21:13.000Z,1.9
2023-03-17T14:22:43.000Z,2.1
2023-03-17T14:24:14.000Z,1.9
2023-03-17T14:25:44.000Z,2.1
2023-03-17T14:27:15.000Z,2
2023-03-17T14:28:45.000Z,2.1
2023-03-17T14:30:16.000Z,2.2
2023-03-17T14:31:46.000Z,2.4
2023-03-17T14:33:17.000Z,2
2023-03-17T14:34:47.000Z,2.3
2023-03-17T14:36:04.000Z,2.2
2023-03-17T14:37:21.000Z,2.1
2023-03-17T14:38:51.000Z,2.2
2023-03-17T14:40:22.000Z,2.1
2023-03-17T14:41:52.000Z,2.2
2023-03-17T14:43:23.000Z,2.2
2023-03-17T14:44:53.000Z,2.2
2023-03-17T14:46:24.000Z,2.2
2023-03-17T14:47:54.000Z,2.5
2023-03-17T14:49:25.000Z,2.2
2023-03-17T14:50:55.000Z,2.2
2023-03-17T14:52:12.000Z,2.2
2023-03-17T14:53:29.000Z,2.2
2023-03-17T14:55:00.000Z,2.2
2023-03-17T14:56:30.000Z,2.3
2023-03-17T14:58:01.000Z,2.3
2023-03-17T14:59:31.000Z,2
2023-03-17T15:01:02.000Z,2.3
2023-03-17T15:02:32.000Z,2.2
2023-03-17T15:04:03.000Z,1.8
2023-03-17T15:05:34.000Z,2
2023-03-17T15:07:04.000Z,1.8
2023-03-17T15:08:21.000Z,1.8
2023-03-17T15:09:38.000Z,1.9
2023-03-17T15:11:08.000Z,2
2023-03-17T15:12:39.000Z,1.7
2023-03-17T15:14:10.000Z,1.6
2023-03-17T15:15:40.000Z,1.9
2023-03-17T15:17:11.000Z,1.8
2023-03-17T15:18:41.000Z,1.6
2023-03-17T15:20:12.000Z,1.8
2023-03-17T15:21:42.000Z,1.8
2023-03-17T15:23:13.000Z,2.2
2023-03-17T15:24:30.000Z,2
2023-03-17T15:25:47.000Z,1.9
2023-03-17T15:27:17.000Z,1.7
2023-03-17T15:28:48.000Z,2
2023-03-17T15:30:18.000Z,2.3
2023-03-17T15:31:49.000Z,1.9
2023-03-17T15:33:19.000Z,2.1
2023-03-17T15:34:50.000Z,2
2023-03-17T15:36:20.000Z,1.9
2023-03-17T15:37:51.000Z,2.1
2023-03-17T15:39:21.000Z,2
2023-03-17T15:40:38.000Z,1.9
2023-03-17T15:41:55.000Z,1.9
2023-03-17T15:43:26.000Z,1.9
2023-03-17T15:44:56.000Z,1.6
2023-03-17T15:46:27.000Z,1.8
2023-03-17T15:47:57.000Z,2
2023-03-17T15:49:28.000Z,1.9
2023-03-17T15:50:58.000Z,1.9
2023-03-17T15:52:29.000Z,1.8
2023-03-17T15:53:59.000Z,2.2
2023-03-17T15:55:30.000Z,1.8
2023-03-17T15:56:47.000Z,1.9
2023-03-17T15:58:03.000Z,1.8
2023-03-17T15:59:34.000Z,1.9
2023-03-17T16:01:04.000Z,1.9
2023-03-17T16:02:35.000Z,1.7
2023-03-17T16:04:05.000Z,1.8
2023-03-17T16:05:36.000Z,1.6
2023-03-17T16:07:06.000Z,2.1
2023-03-17T16:08:37.000Z,2.7
2023-03-17T16:10:07.000Z,1.9
2023-03-17T16:11:38.000Z,1.6
2023-03-17T16:12:55.000Z,1.8
2023-03-17T16:14:12.000Z,1.9
2023-03-17T16:15:42.000Z,1.8
2023-03-17T16:17:13.000Z,1.8
2023-03-17T16:18:43.000Z,2.6
2023-03-17T16:20:14.000Z,2.2
2023-03-17T16:21:44.000Z,1.8
2023-03-17T16:23:15.000Z,1.9
2023-03-17T16:24:45.000Z,2.2
2023-03-17T16:26:16.000Z,1.7
2023-03-17T16:27:46.000Z,1.8
2023-03-17T16:29:03.000Z,1.9
2023-03-17T16:30:20.000Z,2
2023-03-17T16:31:50.000Z,2.2
2023-03-17T16:33:21.000Z,2.3
2023-03-17T16:34:51.000Z,2.2
2023-03-17T16:36:22.000Z,2
2023-03-17T16:37:52.000Z,2
2023-03-17T16:39:23.000Z,1.8
2023-03-17T16:40:54.000Z,1.6
2023-03-17T16:42:24.000Z,1.6
2023-03-17T16:43:55.000Z,2.3
2023-03-17T16:45:25.000Z,2.2
2023-03-17T16:46:42.000Z,2.1
2023-03-17T16:47:59.000Z,1.8
2023-03-17T16:49:30.000Z,2
2023-03-17T16:51:00.000Z,2.2
2023-03-17T16:52:31.000Z,2.1
2023-03-17T16:54:01.000Z,2
2023-03-17T16:55:32.000Z,2
2023-03-17T16:57:02.000Z,2.2
2023-03-17T16:58:33.000Z,2.1
2023-03-17T17:00:03.000Z,2
2023-03-17T17:01:34.000Z,2.2
2023-03-17T17:02:51.000Z,2.2
2023-03-17T17:04:08.000Z,2.2
2023-03-17T17:05:38.000Z,2.1
2023-03-17T17:07:09.000Z,2.1
2023-03-17T17:08:39.000Z,2.1
2023-03-17T17:10:10.000Z,2.1
2023-03-17T17:11:40.000Z,2.2
2023-03-17T17:13:11.000Z,2.2
2023-03-17T17:14:41.000Z,1.9
2023-03-17T17:16:12.000Z,2
2023-03-17T17:17:42.000Z,2
2023-03-17T17:18:59.000Z,1.9
2023-03-17T17:20:16.000Z,2
2023-03-17T17:21:47.000Z,1.9
2023-03-17T17:24:48.000Z,2.1
2023-03-17T17:26:18.000Z,1.8
2023-03-17T17:27:49.000Z,2.1
2023-03-17T17:29:19.000Z,2.1
2023-03-17T17:30:50.000Z,2.3
2023-03-17T17:32:20.000Z,1.9
2023-03-17T17:33:51.000Z,2
2023-03-17T17:35:08.000Z,2.2
2023-03-17T17:36:25.000Z,2.2
2023-03-17T17:37:55.000Z,2.2
2023-03-17T17:39:26.000Z,2.1
2023-03-17T17:40:56.000Z,1.9
2023-03-17T17:42:27.000Z,2.3
2023-03-17T17:43:57.000Z,2.3
2023-03-17T17:45:28.000Z,2.2
2023-03-17T17:46:58.000Z,2.3
2023-03-17T17:49:59.000Z,2.5
2023-03-17T17:51:16.000Z,2.4
2023-03-17T17:52:33.000Z,2.4
2023-03-17T17:54:04.000Z,2.2
2023-03-17T17:55:34.000Z,2.2
2023-03-17T17:57:05.000Z,2.4
2023-03-17T17:58:35.000Z,2.3
2023-03-17T18:00:06.000Z,2.3
2023-03-17T18:01:36.000Z,2.1
2023-03-17T18:03:07.000Z,2
2023-03-17T18:04:37.000Z,3
2023-03-17T18:06:08.000Z,3.4
2023-03-17T18:07:25.000Z,2.7
2023-03-17T18:08:42.000Z,3.7
2023-03-17T18:10:12.000Z,3.2
2023-03-17T18:11:43.000Z,2.5
2023-03-17T18:13:13.000Z,2.6
2023-03-17T18:14:44.000Z,2.7
2023-03-17T18:16:14.000Z,3
2023-03-17T18:17:45.000Z,3
2023-03-17T18:19:15.000Z,2.7
2023-03-17T18:20:46.000Z,3
2023-03-17T18:22:16.000Z,2.9
2023-03-17T18:24:50.000Z,2.4
2023-03-17T18:26:21.000Z,2.6
2023-03-17T18:27:51.000Z,2.6
2023-03-17T18:29:22.000Z,2.7
2023-03-17T18:30:52.000Z,2.7
2023-03-17T18:32:23.000Z,2.6
2023-03-17T18:33:53.000Z,2.3
2023-03-17T18:35:24.000Z,2.7
2023-03-17T18:36:54.000Z,2.6
2023-03-17T18:38:25.000Z,2.6
2023-03-17T18:39:42.000Z,3
2023-03-17T18:40:59.000Z,3.1
2023-03-17T18:42:29.000Z,2.6
2023-03-17T18:44:00.000Z,2.6
2023-03-17T18:45:30.000Z,2.2
2023-03-17T18:47:01.000Z,2.2
2023-03-17T18:48:31.000Z,2.1
2023-03-17T18:50:02.000Z,2.4
2023-03-17T18:51:32.000Z,2.2
2023-03-17T18:53:03.000Z,2.1
2023-03-17T18:54:33.000Z,2.2
2023-03-17T18:55:50.000Z,2
2023-03-17T18:57:07.000Z,2.2
2023-03-17T18:58:37.000Z,2
2023-03-17T19:00:08.000Z,2
2023-03-17T19:01:38.000Z,1.8
2023-03-17T19:03:09.000Z,2.1
2023-03-17T19:04:40.000Z,1.9
2023-03-17T19:06:10.000Z,2
2023-03-17T19:07:41.000Z,1.9
2023-03-17T19:09:11.000Z,2.1
2023-03-17T19:10:42.000Z,1.7
2023-03-17T19:11:59.000Z,2
2023-03-17T19:13:15.000Z,1.9
2023-03-17T19:14:46.000Z,1.9
2023-03-17T19:16:17.000Z,1.7
2023-03-17T19:17:47.000Z,1.8
2023-03-17T19:19:18.000Z,1.7
2023-03-17T19:20:48.000Z,1.8
2023-03-17T19:22:19.000Z,1.9
2023-03-17T19:23:49.000Z,2
2023-03-17T19:25:20.000Z,2.2
2023-03-17T19:26:50.000Z,2
2023-03-17T19:28:07.000Z,2
2023-03-17T19:29:24.000Z,2
2023-03-17T19:30:55.000Z,1.9
2023-03-17T19:32:25.000Z,2
2023-03-17T19:33:56.000Z,2.2
2023-03-17T19:35:26.000Z,2
2023-03-17T19:36:57.000Z,1.9
2023-03-17T19:39:58.000Z,2.1
2023-03-17T19:41:28.000Z,2.1
2023-03-17T19:42:59.000Z,2.2
2023-03-17T19:44:16.000Z,2.3
2023-03-17T19:45:33.000Z,2.8
2023-03-17T19:47:03.000Z,2.5
2023-03-17T19:48:34.000Z,2.8
2023-03-17T19:50:04.000Z,2.8
2023-03-17T19:51:35.000Z,3
2023-03-17T19:53:05.000Z,2.6
2023-03-17T19:54:36.000Z,2.8
2023-03-17T19:56:06.000Z,2.5
2023-03-17T19:57:37.000Z,2.3
2023-03-17T19:59:07.000Z,2.5
2023-03-17T20:00:24.000Z,2.7
2023-03-17T20:01:41.000Z,2.5
2023-03-17T20:03:12.000Z,2.6
2023-03-17T20:04:42.000Z,2.6
2023-03-17T20:06:13.000Z,2.6
2023-03-17T20:07:43.000Z,2.5
2023-03-17T20:09:14.000Z,2.6
2023-03-17T20:10:44.000Z,2.8
2023-03-17T20:12:15.000Z,2.5
2023-03-17T20:13:45.000Z,2.4
2023-03-17T20:15:16.000Z,2.2
2023-03-17T20:16:33.000Z,2.5
2023-03-17T20:17:50.000Z,2.3
2023-03-17T20:19:20.000Z,2.3
2023-03-17T20:20:51.000Z,2.6
2023-03-17T20:22:21.000Z,2.4
2023-03-17T20:23:52.000Z,2.8
2023-03-17T20:25:22.000Z,2.3
2023-03-17T20:26:53.000Z,2.5
2023-03-17T20:28:23.000Z,2.2
2023-03-17T20:29:54.000Z,2.1
2023-03-17T20:31:24.000Z,2.2
2023-03-17T20:32:41.000Z,2.2
2023-03-17T20:33:58.000Z,2.1
2023-03-17T20:35:28.000Z,2
2023-03-17T20:36:59.000Z,1.9
2023-03-17T20:38:29.000Z,2.1
2023-03-17T20:40:00.000Z,2.1
2023-03-17T20:41:30.000Z,2
2023-03-17T20:43:01.000Z,2
2023-03-17T20:44:31.000Z,2.3
2023-03-17T20:46:02.000Z,2
2023-03-17T20:47:32.000Z,2.4
2023-03-17T20:48:49.000Z,2.3
2023-03-17T20:50:06.000Z,2.6